Time;durP1;ratioP1;P1;durP2;ratioP2;P2;SDS_P1;SDS_P2;PMS_P1;PMS_P2;Temp;Humidity;BMP_temperature;BMP_pressure;BME280_temperature;BME280_humidity;BME280_pressure;Samples;Min_cycle;Max_cycle;Signal;HPM_P1;HPM_P2
2023/01/15 00:01:36;;;;;;;3.65;0.70;;;10.60;99.90;;;;;;4942915;28;20030;-87
2023/01/15 00:04:05;;;;;;;1.60;0.60;;;10.60;99.90;;;;;;4954038;28;20018;-87
2023/01/15 00:06:34;;;;;;;1.42;0.60;;;10.60;99.90;;;;;;4946309;28;20073;-87
2023/01/15 00:09:00;;;;;;;1.27;0.50;;;10.60;99.90;;;;;;4955780;28;20101;-87
2023/01/15 00:11:26;;;;;;;4.45;0.60;;;10.50;99.90;;;;;;4952956;28;20338;-88
2023/01/15 00:13:52;;;;;;;1.55;0.50;;;10.50;99.90;;;;;;4934045;28;20110;-88
2023/01/15 00:16:23;;;;;;;2.43;0.77;;;10.50;99.90;;;;;;4931289;28;20369;-88
2023/01/15 00:18:52;;;;;;;2.95;0.80;;;10.50;99.90;;;;;;4962424;28;20420;-87
2023/01/15 00:21:19;;;;;;;2.90;0.55;;;10.50;99.90;;;;;;4930365;28;20026;-87
2023/01/15 00:29:16;;;;;;;3.95;0.88;;;10.50;99.90;;;;;;4930908;28;21204;-88
2023/01/15 00:31:49;;;;;;;2.20;0.60;;;10.50;99.90;;;;;;4975123;28;20102;-87
2023/01/15 00:34:15;;;;;;;1.50;0.50;;;10.40;99.90;;;;;;4944537;28;20240;-87
2023/01/15 00:36:42;;;;;;;2.50;0.70;;;10.40;99.90;;;;;;4923863;28;20034;-90
2023/01/15 00:39:08;;;;;;;3.85;0.80;;;10.50;99.90;;;;;;4952899;28;20023;-87
2023/01/15 00:41:34;;;;;;;2.17;0.60;;;10.40;99.90;;;;;;4943024;28;20015;-87
2023/01/15 00:44:00;;;;;;;1.47;0.50;;;10.40;99.90;;;;;;4938798;28;20435;-87
2023/01/15 00:46:26;;;;;;;2.05;0.60;;;10.40;99.90;;;;;;4930181;28;20762;-88
2023/01/15 00:48:52;;;;;;;2.63;0.73;;;10.40;99.90;;;;;;4943086;28;20053;-87
2023/01/15 00:51:17;;;;;;;0.80;0.50;;;10.40;99.90;;;;;;4954654;28;20649;-87
2023/01/15 00:53:43;;;;;;;3.00;0.68;;;10.40;99.90;;;;;;4944014;28;20030;-89
2023/01/15 00:56:09;;;;;;;3.63;0.70;;;10.40;99.90;;;;;;4935398;28;20025;-88
2023/01/15 00:58:35;;;;;;;2.50;0.60;;;10.40;99.90;;;;;;4927112;28;20526;-88
2023/01/15 01:01:01;;;;;;;4.07;0.80;;;10.40;99.90;;;;;;4914465;28;20080;-87
2023/01/15 01:03:28;;;;;;;5.07;0.80;;;10.40;99.90;;;;;;4942762;28;20026;-87
2023/01/15 01:06:01;;;;;;;3.30;0.73;;;10.40;99.90;;;;;;4931429;28;20038;-87
2023/01/15 01:08:27;;;;;;;3.25;0.77;;;10.40;99.90;;;;;;4965526;28;20024;-89
2023/01/15 01:11:08;;;;;;;2.25;0.70;;;10.40;99.90;;;;;;4957884;28;20308;-88
2023/01/15 01:13:35;;;;;;;2.25;0.68;;;10.40;99.90;;;;;;4953797;28;20030;-87
2023/01/15 01:16:01;;;;;;;2.17;0.75;;;10.40;99.90;;;;;;4927455;28;20398;-87
2023/01/15 01:18:27;;;;;;;1.67;0.60;;;10.40;99.90;;;;;;4932922;28;20026;-90
2023/01/15 01:20:53;;;;;;;5.55;0.90;;;10.40;99.90;;;;;;4935556;28;20255;-87
2023/01/15 01:23:21;;;;;;;2.92;0.63;;;10.40;99.90;;;;;;4933863;28;20075;-87
2023/01/15 01:25:47;;;;;;;3.07;0.73;;;10.40;99.90;;;;;;4954885;28;20232;-87
2023/01/15 01:28:13;;;;;;;3.65;0.80;;;10.30;99.90;;;;;;4957886;28;20034;-88
2023/01/15 01:30:39;;;;;;;0.93;0.68;;;10.40;99.90;;;;;;4917013;28;20122;-87
2023/01/15 01:33:04;;;;;;;3.90;0.90;;;10.40;99.90;;;;;;4966984;28;20037;-87
2023/01/15 01:35:30;;;;;;;2.40;0.60;;;10.40;99.90;;;;;;4945916;28;20214;-87
2023/01/15 01:37:56;;;;;;;3.67;0.77;;;10.30;99.90;;;;;;4953174;28;20487;-88
2023/01/15 01:40:22;;;;;;;2.97;0.80;;;10.30;99.90;;;;;;4971382;28;20347;-87
2023/01/15 01:42:48;;;;;;;3.22;0.70;;;10.30;99.90;;;;;;4939138;28;20359;-88
2023/01/15 01:45:30;;;;;;;2.03;0.60;;;10.30;99.90;;;;;;4959092;28;20368;-86
2023/01/15 01:48:01;;;;;;;3.25;0.80;;;10.30;99.90;;;;;;4944382;28;20236;-87
2023/01/15 01:50:28;;;;;;;3.38;0.60;;;10.30;99.90;;;;;;4929788;28;20026;-87
2023/01/15 01:53:05;;;;;;;3.40;0.80;;;10.30;99.90;;;;;;4924098;28;20062;-87
2023/01/15 01:55:33;;;;;;;3.60;0.70;;;10.20;99.90;;;;;;4953184;28;20031;-89
2023/01/15 01:58:01;;;;;;;3.72;0.90;;;10.20;99.90;;;;;;4971247;28;20044;-88
2023/01/15 02:00:29;;;;;;;4.03;1.23;;;10.20;99.90;;;;;;4954755;28;20081;-87
2023/01/15 02:02:54;;;;;;;3.08;0.60;;;10.20;99.90;;;;;;4945843;28;20246;-87
2023/01/15 02:05:37;;;;;;;2.87;0.70;;;10.20;99.90;;;;;;4956401;28;20049;-86
2023/01/15 02:08:03;;;;;;;2.35;0.68;;;10.20;99.90;;;;;;4943301;28;20699;-87
2023/01/15 02:10:29;;;;;;;3.33;0.70;;;10.20;99.90;;;;;;4949453;28;20041;-86
2023/01/15 02:13:30;;;;;;;2.30;0.50;;;10.20;99.90;;;;;;4936997;28;20617;-87
2023/01/15 02:16:40;;;;;;;1.80;0.60;;;10.10;99.90;;;;;;4965105;28;20497;-86
2023/01/15 02:19:29;;;;;;;1.87;0.50;;;10.10;99.90;;;;;;4934300;28;20066;-86
2023/01/15 02:22:11;;;;;;;4.65;1.42;;;10.10;99.90;;;;;;4944251;28;20049;-87
2023/01/15 02:25:13;;;;;;;2.85;0.60;;;10.10;99.90;;;;;;4928242;28;20628;-86
2023/01/15 02:27:46;;;;;;;2.83;0.73;;;10.10;99.90;;;;;;4966332;28;20439;-87
2023/01/15 02:30:22;;;;;;;3.22;0.60;;;10.00;99.90;;;;;;4943977;28;20157;-87
2023/01/15 02:32:54;;;;;;;2.27;0.60;;;10.00;99.90;;;;;;4948094;28;20065;-87
2023/01/15 02:35:52;;;;;;;3.33;0.70;;;10.00;99.90;;;;;;4935337;28;20098;-88
2023/01/15 02:38:21;;;;;;;2.50;0.60;;;10.00;99.90;;;;;;4920174;28;20320;-86
2023/01/15 02:40:51;;;;;;;3.53;1.00;;;9.90;99.90;;;;;;4934003;28;20120;-87
2023/01/15 02:43:19;;;;;;;3.40;0.70;;;9.90;99.90;;;;;;4943524;28;20022;-87
2023/01/15 02:45:49;;;;;;;2.97;0.60;;;9.90;99.90;;;;;;4971941;28;20151;-87
2023/01/15 02:48:18;;;;;;;2.63;0.60;;;9.90;99.90;;;;;;4977117;28;20109;-86
2023/01/15 02:51:14;;;;;;;2.08;0.80;;;9.90;99.90;;;;;;4920964;28;20031;-86
2023/01/15 02:53:43;;;;;;;2.58;0.50;;;9.80;99.90;;;;;;4949524;28;20043;-86
2023/01/15 02:56:13;;;;;;;5.40;0.90;;;9.90;99.90;;;;;;4966102;28;20360;-87
2023/01/15 02:58:42;;;;;;;1.67;0.57;;;9.80;99.90;;;;;;4961741;28;20594;-87
2023/01/15 03:01:37;;;;;;;3.50;0.73;;;9.80;99.90;;;;;;4934512;28;20019;-87
2023/01/15 03:04:14;;;;;;;3.20;0.52;;;9.80;99.90;;;;;;4937608;28;20045;-86
2023/01/15 03:07:03;;;;;;;4.85;0.88;;;9.80;99.90;;;;;;4916139;28;20069;-86
2023/01/15 03:09:30;;;;;;;3.45;0.70;;;9.80;99.90;;;;;;4933123;28;20038;-87
2023/01/15 03:12:25;;;;;;;4.67;0.70;;;9.80;99.90;;;;;;4961316;28;20113;-86
2023/01/15 03:14:59;;;;;;;3.40;0.75;;;9.80;99.90;;;;;;4973684;28;20030;-90
2023/01/15 03:17:46;;;;;;;2.90;0.60;;;9.80;99.90;;;;;;4942068;28;20430;-87
2023/01/15 03:20:19;;;;;;;3.63;0.80;;;9.80;99.90;;;;;;4928147;28;20739;-88
2023/01/15 03:22:52;;;;;;;5.05;0.90;;;9.70;99.90;;;;;;4943453;28;20029;-87
2023/01/15 03:25:23;;;;;;;4.40;0.80;;;9.70;99.90;;;;;;4943808;28;20964;-89
2023/01/15 03:27:54;;;;;;;2.10;0.60;;;9.80;99.90;;;;;;4963050;28;20030;-89
2023/01/15 03:30:21;;;;;;;3.58;0.80;;;9.70;99.90;;;;;;4953427;28;20518;-87
2023/01/15 03:32:47;;;;;;;2.42;0.70;;;9.70;99.90;;;;;;4946209;28;20030;-86
2023/01/15 03:35:46;;;;;;;2.75;0.80;;;9.70;99.90;;;;;;4947657;28;22528;-88
2023/01/15 03:38:15;;;;;;;3.37;0.70;;;9.70;99.90;;;;;;4952700;28;20061;-87
2023/01/15 03:41:16;;;;;;;3.42;0.70;;;9.70;99.90;;;;;;4934615;28;20762;-88
2023/01/15 03:44:11;;;;;;;3.67;0.80;;;9.70;99.90;;;;;;4959710;28;20689;-88
2023/01/15 03:47:21;;;;;;;4.22;0.75;;;9.60;99.90;;;;;;4958509;28;20104;-86
2023/01/15 03:50:00;;;;;;;3.33;0.60;;;9.60;99.90;;;;;;4885242;29;20043;-87
2023/01/15 03:52:34;;;;;;;3.67;0.90;;;9.60;99.90;;;;;;4946934;28;20057;-90
2023/01/15 03:55:11;;;;;;;3.45;0.60;;;9.60;99.90;;;;;;4969109;28;20371;-88
2023/01/15 03:57:43;;;;;;;5.05;0.73;;;9.60;99.90;;;;;;4940076;28;20041;-87
2023/01/15 04:00:18;;;;;;;2.63;0.70;;;9.60;99.90;;;;;;4963584;28;20120;-87
2023/01/15 04:02:45;;;;;;;4.90;0.75;;;9.60;99.90;;;;;;4970025;28;20026;-88
2023/01/15 04:05:12;;;;;;;2.90;0.70;;;9.60;99.90;;;;;;4939619;28;20037;-87
2023/01/15 04:07:39;;;;;;;3.35;0.50;;;9.60;99.90;;;;;;4950380;28;20034;-87
2023/01/15 04:10:08;;;;;;;1.80;0.70;;;9.60;99.90;;;;;;4957335;28;20034;-86
2023/01/15 04:12:34;;;;;;;2.45;0.68;;;9.50;99.90;;;;;;4947680;28;20030;-86
2023/01/15 04:15:00;;;;;;;4.73;0.80;;;9.50;99.90;;;;;;4948227;28;20027;-88
2023/01/15 04:17:25;;;;;;;2.38;0.52;;;9.60;99.90;;;;;;4951855;28;20093;-85
2023/01/15 04:19:51;;;;;;;1.80;0.50;;;9.50;99.90;;;;;;4938440;28;20038;-88
2023/01/15 04:22:16;;;;;;;4.18;0.70;;;9.50;99.90;;;;;;4911499;28;20375;-87
2023/01/15 04:24:42;;;;;;;3.10;0.70;;;9.50;99.90;;;;;;4939707;28;20129;-87
2023/01/15 04:27:08;;;;;;;5.00;0.80;;;9.50;99.90;;;;;;4944093;28;20042;-87
2023/01/15 04:29:34;;;;;;;5.10;0.90;;;9.50;99.90;;;;;;4928710;28;20073;-88
2023/01/15 04:31:59;;;;;;;4.85;0.93;;;9.50;99.90;;;;;;4953787;28;20034;-88
2023/01/15 04:34:27;;;;;;;2.43;0.60;;;9.50;99.90;;;;;;4952031;28;20191;-87
2023/01/15 04:36:54;;;;;;;3.33;0.90;;;9.40;99.90;;;;;;4955588;28;20064;-90
2023/01/15 04:39:20;;;;;;;4.05;1.00;;;9.40;99.90;;;;;;4942080;28;20176;-88
2023/01/15 04:44:32;;;;;;;2.67;0.65;;;9.40;99.90;;;;;;4954297;28;20973;-86
2023/01/15 04:46:58;;;;;;;1.80;0.60;;;9.40;99.90;;;;;;4944601;28;20034;-90
2023/01/15 04:49:26;;;;;;;2.28;0.50;;;9.40;99.90;;;;;;4956457;28;20414;-87
2023/01/15 04:51:52;;;;;;;5.55;1.42;;;9.40;99.90;;;;;;4942648;28;20058;-86
2023/01/15 04:54:18;;;;;;;3.13;0.60;;;9.30;99.90;;;;;;4918920;28;20581;-89
2023/01/15 04:56:46;;;;;;;3.75;0.60;;;9.30;99.90;;;;;;4952612;28;20109;-87
2023/01/15 04:59:14;;;;;;;2.67;0.60;;;9.40;99.90;;;;;;4930547;28;20387;-89
2023/01/15 05:01:40;;;;;;;5.03;0.75;;;9.30;99.90;;;;;;4934058;28;20069;-85
2023/01/15 05:04:06;;;;;;;3.17;0.60;;;9.30;99.90;;;;;;4938285;28;20839;-88
2023/01/15 05:06:32;;;;;;;3.50;0.70;;;9.30;99.90;;;;;;4941015;28;20058;-88
2023/01/15 05:08:59;;;;;;;4.90;0.77;;;9.30;99.90;;;;;;4916238;28;20105;-87
2023/01/15 05:11:25;;;;;;;3.03;0.70;;;9.30;99.90;;;;;;4956289;28;20743;-86
2023/01/15 05:13:51;;;;;;;4.27;1.00;;;9.30;99.90;;;;;;4971215;28;20556;-89
2023/01/15 05:16:23;;;;;;;2.63;0.70;;;9.30;99.90;;;;;;4917381;28;20132;-87
2023/01/15 05:18:51;;;;;;;4.65;0.80;;;9.30;99.90;;;;;;4958891;28;20022;-88
2023/01/15 05:21:26;;;;;;;2.58;0.70;;;9.30;99.90;;;;;;4955380;28;20451;-88
2023/01/15 05:23:56;;;;;;;4.47;0.80;;;9.30;99.90;;;;;;4954297;28;20264;-86
2023/01/15 05:26:22;;;;;;;2.23;0.50;;;9.30;99.90;;;;;;4917767;28;20022;-88
2023/01/15 05:28:49;;;;;;;2.92;0.77;;;9.30;99.90;;;;;;4941530;28;20785;-87
2023/01/15 05:31:17;;;;;;;2.47;0.52;;;9.30;99.90;;;;;;4912574;28;20034;-88
2023/01/15 05:33:45;;;;;;;4.05;0.80;;;9.30;99.90;;;;;;4941387;28;20030;-89
2023/01/15 05:36:18;;;;;;;2.95;0.70;;;9.30;99.90;;;;;;4950536;28;20081;-86
2023/01/15 05:38:44;;;;;;;3.27;0.80;;;9.30;99.90;;;;;;4958359;28;20023;-87
2023/01/15 05:44:03;;;;;;;3.00;0.68;;;9.20;99.90;;;;;;4969718;28;20014;-89
2023/01/15 05:46:30;;;;;;;2.13;0.73;;;9.20;99.90;;;;;;4943476;28;20529;-90
2023/01/15 05:49:00;;;;;;;3.70;0.55;;;9.20;99.90;;;;;;4937518;28;20510;-88
2023/01/15 05:51:27;;;;;;;4.72;1.08;;;9.20;99.90;;;;;;4956890;28;20261;-89
2023/01/15 05:53:52;;;;;;;1.95;0.65;;;9.20;99.90;;;;;;4948513;28;20026;-88
2023/01/15 05:56:18;;;;;;;1.53;0.70;;;9.20;99.90;;;;;;4918633;28;20030;-89
2023/01/15 05:58:44;;;;;;;2.58;0.80;;;9.10;99.90;;;;;;4945219;28;20120;-87
2023/01/15 06:01:10;;;;;;;4.22;0.60;;;9.10;99.90;;;;;;4932114;28;20109;-89
2023/01/15 06:03:36;;;;;;;2.33;0.43;;;9.10;99.90;;;;;;4928815;28;20026;-88
2023/01/15 06:06:03;;;;;;;1.73;0.47;;;9.10;99.90;;;;;;4973820;28;20049;-89
2023/01/15 06:08:29;;;;;;;3.53;0.52;;;9.10;99.90;;;;;;4943524;28;20031;-88
2023/01/15 06:10:55;;;;;;;2.53;0.50;;;9.10;99.90;;;;;;4932368;28;20228;-89
2023/01/15 06:13:21;;;;;;;3.58;0.70;;;9.10;99.90;;;;;;4961968;28;20030;-87
2023/01/15 06:15:46;;;;;;;0.70;0.50;;;9.10;99.90;;;;;;4929919;28;20128;-88
2023/01/15 06:18:12;;;;;;;2.87;0.60;;;9.10;99.90;;;;;;4952517;28;20022;-87
2023/01/15 06:20:39;;;;;;;2.08;0.50;;;9.10;99.90;;;;;;4954228;28;20402;-88
2023/01/15 06:23:07;;;;;;;1.40;0.70;;;9.10;99.90;;;;;;4961978;28;20022;-87
2023/01/15 06:25:37;;;;;;;1.87;0.60;;;9.10;99.90;;;;;;4964419;28;20018;-87
2023/01/15 06:28:07;;;;;;;1.60;0.43;;;9.00;99.90;;;;;;4924386;28;20042;-88
2023/01/15 06:30:33;;;;;;;3.00;0.70;;;9.00;99.90;;;;;;4960731;28;20027;-89
2023/01/15 06:33:00;;;;;;;1.85;0.50;;;8.90;99.90;;;;;;4956286;28;20041;-89
2023/01/15 06:35:26;;;;;;;2.00;0.50;;;8.90;99.90;;;;;;4975337;28;20035;-89
2023/01/15 06:37:52;;;;;;;2.10;0.40;;;8.80;99.90;;;;;;4960604;28;20280;-90
2023/01/15 06:40:18;;;;;;;0.68;0.40;;;8.80;99.90;;;;;;4966758;28;20027;-87
2023/01/15 06:48:21;;;;;;;1.10;0.30;;;8.60;99.90;;;;;;4951046;28;20034;-87
2023/01/15 06:50:47;;;;;;;2.07;0.73;;;8.50;99.90;;;;;;4961353;28;20072;-86
2023/01/15 06:53:13;;;;;;;1.02;0.50;;;8.50;99.90;;;;;;4961398;28;20474;-87
2023/01/15 06:55:39;;;;;;;2.42;0.35;;;8.40;99.90;;;;;;4931658;28;21799;-89
2023/01/15 06:58:04;;;;;;;2.27;0.50;;;8.40;99.90;;;;;;4944875;28;20023;-89
2023/01/15 07:00:30;;;;;;;1.63;0.50;;;8.30;99.90;;;;;;4933898;28;20582;-88
2023/01/15 07:02:59;;;;;;;1.13;0.43;;;8.30;99.90;;;;;;4946093;28;20097;-87
2023/01/15 07:05:24;;;;;;;0.73;0.50;;;8.20;99.90;;;;;;4934961;28;20042;-87
2023/01/15 07:07:50;;;;;;;2.50;0.70;;;8.20;99.90;;;;;;4941735;28;20027;-88
2023/01/15 07:10:16;;;;;;;1.55;0.50;;;8.20;99.90;;;;;;4942036;28;20026;-90
2023/01/15 07:12:43;;;;;;;1.13;0.40;;;8.10;99.90;;;;;;4941657;28;20065;-89
2023/01/15 07:15:09;;;;;;;1.42;0.40;;;8.10;99.90;;;;;;4931182;28;20035;-88
2023/01/15 07:17:35;;;;;;;4.00;0.63;;;8.10;99.90;;;;;;4974216;28;20054;-89
2023/01/15 07:20:01;;;;;;;2.70;0.60;;;8.10;99.90;;;;;;4920826;28;20189;-88
2023/01/15 07:22:26;;;;;;;2.90;0.73;;;8.10;99.90;;;;;;4956778;28;20037;-86
2023/01/15 07:24:52;;;;;;;1.67;0.53;;;8.00;99.90;;;;;;4956315;28;20024;-87
2023/01/15 07:27:18;;;;;;;1.52;0.40;;;8.00;99.90;;;;;;4924767;28;20026;-89
2023/01/15 07:29:44;;;;;;;2.47;0.73;;;8.00;99.90;;;;;;4939076;28;20101;-87
2023/01/15 07:32:10;;;;;;;3.83;0.70;;;7.90;99.90;;;;;;4929807;28;20022;-88
2023/01/15 07:34:36;;;;;;;2.03;0.70;;;7.90;99.90;;;;;;4926994;28;20360;-88
2023/01/15 07:37:02;;;;;;;3.23;0.70;;;7.90;99.90;;;;;;4948812;28;20026;-87
2023/01/15 07:39:30;;;;;;;2.90;0.70;;;7.90;99.90;;;;;;4928053;28;20056;-88
2023/01/15 07:50:13;;;;;;;2.23;0.53;;;7.90;99.90;;;;;;4959714;28;20038;-88
2023/01/15 07:52:39;;;;;;;2.80;0.93;;;7.90;99.90;;;;;;4952184;28;20268;-88
2023/01/15 07:55:07;;;;;;;2.25;0.68;;;7.90;99.90;;;;;;4930030;28;20113;-87
2023/01/15 07:57:33;;;;;;;2.37;0.60;;;7.90;99.90;;;;;;4946828;28;20030;-86
2023/01/15 07:59:59;;;;;;;3.67;0.63;;;7.90;99.90;;;;;;4927944;28;20141;-89
2023/01/15 08:02:26;;;;;;;4.00;0.95;;;7.90;99.90;;;;;;4932323;28;20400;-88
2023/01/15 08:04:51;;;;;;;3.47;0.98;;;7.90;99.90;;;;;;4932679;28;20033;-88
2023/01/15 08:07:17;;;;;;;4.80;0.87;;;7.90;99.90;;;;;;4964419;28;20057;-88
2023/01/15 08:09:43;;;;;;;5.03;1.00;;;7.90;99.90;;;;;;4942553;28;20026;-89
2023/01/15 08:15:14;;;;;;;4.35;0.90;;;7.90;99.90;;;;;;4937691;28;20022;-87
2023/01/15 08:17:45;;;;;;;2.77;0.53;;;8.00;99.90;;;;;;4929175;28;20037;-89
2023/01/15 08:20:17;;;;;;;3.28;0.70;;;8.00;99.90;;;;;;4922670;28;20037;-89
2023/01/15 08:22:44;;;;;;;3.85;0.80;;;8.00;99.90;;;;;;4953994;28;20622;-88
2023/01/15 08:25:12;;;;;;;2.00;0.75;;;7.90;99.90;;;;;;4939015;28;20026;-87
2023/01/15 08:27:39;;;;;;;4.80;1.00;;;8.00;99.90;;;;;;4944819;28;20018;-89
2023/01/15 08:30:07;;;;;;;4.83;0.80;;;8.00;99.90;;;;;;4942745;28;20030;-88
2023/01/15 08:32:32;;;;;;;4.75;0.85;;;8.00;99.90;;;;;;4940319;28;20053;-89
2023/01/15 08:34:58;;;;;;;5.70;0.80;;;8.10;99.90;;;;;;4944182;28;20030;-87
2023/01/15 08:37:24;;;;;;;3.77;0.60;;;8.10;99.90;;;;;;4930144;28;20072;-87
2023/01/15 08:39:51;;;;;;;2.35;0.55;;;8.20;99.90;;;;;;4938142;28;20476;-88
2023/01/15 08:42:19;;;;;;;4.68;0.80;;;8.30;99.90;;;;;;4943877;28;20258;-90
2023/01/15 08:44:45;;;;;;;4.53;0.73;;;8.40;99.90;;;;;;4940140;28;20493;-87
2023/01/15 08:47:10;;;;;;;3.77;0.73;;;8.50;99.90;;;;;;4950656;28;20022;-89
2023/01/15 08:49:37;;;;;;;4.07;0.80;;;8.50;99.90;;;;;;4925367;28;20030;-88
2023/01/15 08:52:03;;;;;;;3.05;1.13;;;8.60;99.90;;;;;;4941923;28;20080;-89
2023/01/15 08:54:29;;;;;;;2.13;0.70;;;8.80;99.90;;;;;;4923647;28;20030;-87
2023/01/15 08:56:54;;;;;;;4.07;0.80;;;8.90;99.90;;;;;;4919050;28;21178;-88
2023/01/15 08:59:20;;;;;;;3.05;0.68;;;9.00;99.90;;;;;;4926361;28;20376;-90
2023/01/15 09:01:46;;;;;;;3.90;0.63;;;9.10;99.90;;;;;;4918399;28;20133;-88
2023/01/15 09:04:17;;;;;;;2.30;0.68;;;9.20;99.90;;;;;;4927379;28;20065;-89
2023/01/15 09:06:44;;;;;;;4.85;1.05;;;9.30;99.90;;;;;;4938491;28;20048;-88
2023/01/15 09:09:10;;;;;;;2.13;0.60;;;9.30;99.90;;;;;;4932843;28;20479;-89
2023/01/15 09:11:39;;;;;;;3.25;0.70;;;9.40;99.90;;;;;;4951647;28;20029;-88
2023/01/15 09:14:09;;;;;;;5.07;0.80;;;9.40;99.90;;;;;;4954262;28;20034;-88
2023/01/15 09:16:36;;;;;;;3.00;0.80;;;9.40;99.90;;;;;;4942181;28;20454;-88
2023/01/15 09:19:03;;;;;;;6.03;1.02;;;9.50;99.90;;;;;;4924828;28;20620;-89
2023/01/15 09:21:29;;;;;;;2.57;0.73;;;9.50;99.90;;;;;;4941074;28;20376;-87
2023/01/15 09:23:55;;;;;;;3.03;0.82;;;9.50;99.90;;;;;;4936362;28;20313;-89
2023/01/15 09:26:31;;;;;;;3.30;0.98;;;9.50;99.90;;;;;;4943559;28;20148;-89
2023/01/15 09:28:58;;;;;;;4.23;0.93;;;9.50;99.90;;;;;;4938225;28;20022;-89
2023/01/15 09:31:27;;;;;;;3.05;0.77;;;9.60;99.90;;;;;;4924411;28;20412;-88
2023/01/15 09:33:53;;;;;;;1.85;0.82;;;9.60;99.90;;;;;;4944385;28;20034;-88
2023/01/15 09:36:29;;;;;;;2.15;0.70;;;9.70;99.90;;;;;;4925235;28;20291;-89
2023/01/15 09:38:57;;;;;;;2.95;0.70;;;9.90;99.90;;;;;;4926313;28;20042;-89
2023/01/15 09:44:32;;;;;;;3.58;1.08;;;10.30;99.90;;;;;;4946782;28;20562;-88
2023/01/15 09:47:12;;;;;;;2.90;0.70;;;10.60;99.90;;;;;;4951332;28;20058;-87
2023/01/15 09:49:49;;;;;;;3.83;0.82;;;10.90;99.90;;;;;;4937936;28;20123;-87
2023/01/15 09:52:30;;;;;;;2.65;0.68;;;11.00;99.90;;;;;;4932326;28;20026;-88
2023/01/15 09:55:07;;;;;;;3.10;0.70;;;11.20;99.90;;;;;;4920229;28;20498;-88
2023/01/15 09:57:35;;;;;;;3.58;0.70;;;11.40;99.90;;;;;;4933725;28;20034;-89
2023/01/15 10:00:04;;;;;;;2.90;0.70;;;11.60;99.90;;;;;;4951715;28;20026;-88
2023/01/15 10:02:54;;;;;;;1.92;0.70;;;11.70;99.90;;;;;;4918277;28;20030;-86
2023/01/15 10:05:22;;;;;;;2.13;0.50;;;11.90;99.90;;;;;;4949758;28;20117;-88
2023/01/15 10:08:14;;;;;;;1.53;0.60;;;12.20;99.90;;;;;;4934945;28;20031;-87
2023/01/15 10:11:15;;;;;;;1.70;0.50;;;12.40;99.90;;;;;;4936754;28;20442;-88
2023/01/15 10:13:46;;;;;;;3.38;0.60;;;12.60;99.90;;;;;;4922316;28;20133;-89
2023/01/15 10:16:24;;;;;;;1.38;0.80;;;12.50;99.90;;;;;;4938108;28;20030;-89
2023/01/15 10:18:51;;;;;;;2.53;0.60;;;12.30;99.90;;;;;;4957717;28;20030;-84
2023/01/15 10:21:32;;;;;;;1.70;0.70;;;12.10;99.90;;;;;;4966612;28;20057;-87
2023/01/15 10:24:14;;;;;;;2.58;0.75;;;12.00;99.90;;;;;;4943465;28;20030;-90
2023/01/15 10:26:43;;;;;;;2.95;0.80;;;11.90;99.90;;;;;;4983726;28;20019;-88
2023/01/15 10:29:37;;;;;;;1.30;0.70;;;11.80;99.90;;;;;;4965244;28;20080;-89
2023/01/15 10:32:23;;;;;;;2.60;0.70;;;11.70;99.90;;;;;;4947398;28;20745;-87
2023/01/15 10:35:06;;;;;;;2.07;0.83;;;11.50;99.90;;;;;;4927608;28;20109;-89
2023/01/15 10:37:37;;;;;;;2.05;0.70;;;11.40;99.90;;;;;;4948615;28;20497;-89
2023/01/15 10:40:21;;;;;;;1.08;0.60;;;11.20;99.90;;;;;;4919204;28;20272;-87
2023/01/15 10:42:51;;;;;;;1.45;0.70;;;11.20;99.90;;;;;;4945571;28;20368;-90
2023/01/15 10:45:23;;;;;;;2.85;0.98;;;11.30;99.90;;;;;;4934722;28;20026;-86
2023/01/15 10:48:04;;;;;;;2.63;0.80;;;11.40;99.90;;;;;;4941218;28;20156;-89
2023/01/15 10:50:32;;;;;;;1.63;0.60;;;11.50;99.90;;;;;;4962798;28;20478;-89
2023/01/15 10:53:11;;;;;;;1.92;0.65;;;11.70;99.90;;;;;;4898741;28;20085;-88
2023/01/15 10:55:48;;;;;;;1.50;0.70;;;11.80;99.90;;;;;;4931903;28;20423;-89
2023/01/15 10:58:33;;;;;;;1.85;0.93;;;12.10;99.90;;;;;;4933651;28;20261;-87
2023/01/15 11:01:10;;;;;;;1.10;0.60;;;12.30;99.90;;;;;;4939623;28;20047;-89
2023/01/15 11:03:39;;;;;;;2.90;0.75;;;12.60;99.90;;;;;;4959144;28;20386;-86
2023/01/15 11:06:10;;;;;;;1.83;0.63;;;12.80;99.90;;;;;;4945667;28;20085;-88
2023/01/15 11:08:39;;;;;;;2.83;0.60;;;12.90;99.90;;;;;;4932613;28;20035;-89
2023/01/15 11:20:23;;;;;;;0.93;0.60;;;13.10;99.90;;;;;;4954192;28;20026;-87
2023/01/15 11:22:49;;;;;;;2.25;0.70;;;13.10;98.90;;;;;;4958252;28;20030;-89
2023/01/15 11:25:28;;;;;;;2.45;0.70;;;13.10;99.90;;;;;;4918991;28;20440;-89
2023/01/15 11:27:55;;;;;;;3.10;0.87;;;13.20;99.30;;;;;;4950305;28;20505;-87
2023/01/15 11:30:33;;;;;;;2.17;0.60;;;13.20;99.90;;;;;;4948569;28;20497;-90
2023/01/15 11:33:02;;;;;;;2.53;0.70;;;13.10;99.40;;;;;;4942536;28;20376;-90
2023/01/15 11:35:29;;;;;;;3.53;0.73;;;13.10;99.90;;;;;;4945494;28;20394;-88
2023/01/15 11:38:11;;;;;;;1.80;0.70;;;13.00;99.90;;;;;;4959491;28;20113;-89
2023/01/15 11:40:37;;;;;;;3.27;0.70;;;12.80;97.30;;;;;;4936582;28;20031;-89
2023/01/15 11:51:46;;;;;;;3.67;0.90;;;11.80;97.10;;;;;;4943651;28;20026;-87
2023/01/15 11:54:14;;;;;;;2.10;0.70;;;11.60;97.80;;;;;;4939274;28;20042;-87
2023/01/15 11:56:44;;;;;;;2.15;0.93;;;11.50;99.90;;;;;;4935579;28;20022;-90
2023/01/15 11:59:18;;;;;;;2.42;1.00;;;11.30;99.80;;;;;;4923072;28;20458;-88
2023/01/15 12:01:53;;;;;;;2.17;0.82;;;11.40;99.90;;;;;;4942445;28;20041;-87
2023/01/15 12:04:50;;;;;;;2.00;0.70;;;11.40;99.90;;;;;;4958013;28;20856;-87
2023/01/15 12:07:17;;;;;;;3.13;0.90;;;11.40;98.80;;;;;;4938049;28;20241;-87
2023/01/15 12:10:13;;;;;;;3.78;1.00;;;11.40;99.80;;;;;;4978000;28;20366;-88
2023/01/15 12:12:38;;;;;;;1.88;0.80;;;11.30;98.90;;;;;;4960791;28;20026;-88
2023/01/15 12:15:42;;;;;;;1.83;0.87;;;11.30;99.90;;;;;;4946130;28;20029;-87
2023/01/15 12:18:56;;;;;;;2.33;1.00;;;11.30;99.90;;;;;;4946693;28;20038;-88
2023/01/15 12:21:52;;;;;;;2.92;1.05;;;11.30;99.90;;;;;;4867180;29;20308;-89
2023/01/15 12:24:48;;;;;;;3.45;1.00;;;11.30;98.90;;;;;;4908031;29;20114;-89
2023/01/15 12:27:43;;;;;;;1.77;0.70;;;11.20;99.90;;;;;;4902255;28;20183;-89
2023/01/15 12:30:12;;;;;;;2.13;0.80;;;11.20;99.90;;;;;;4915414;28;20050;-88
2023/01/15 12:32:43;;;;;;;3.10;0.90;;;11.10;99.90;;;;;;4967493;28;20057;-87
2023/01/15 12:35:43;;;;;;;4.38;1.10;;;11.10;99.90;;;;;;4945127;28;20160;-87
2023/01/15 12:38:27;;;;;;;2.95;0.90;;;11.20;97.20;;;;;;4946891;28;20673;-89
2023/01/15 12:41:06;;;;;;;2.17;0.70;;;11.10;99.90;;;;;;4932466;28;20077;-90
2023/01/15 12:46:29;;;;;;;2.83;0.70;;;11.10;99.90;;;;;;4942009;28;21546;-88
2023/01/15 12:49:31;;;;;;;2.60;1.10;;;11.00;99.90;;;;;;4949095;28;20037;-88
2023/01/15 12:52:02;;;;;;;3.35;0.90;;;10.90;99.00;;;;;;4944884;28;20026;-90
2023/01/15 12:54:38;;;;;;;4.17;1.30;;;10.90;99.90;;;;;;4930828;28;20660;-87
2023/01/15 12:57:29;;;;;;;3.55;0.90;;;10.90;99.90;;;;;;4912980;28;20018;-89
2023/01/15 13:00:12;;;;;;;3.10;1.17;;;10.80;99.90;;;;;;4952997;28;20442;-90
2023/01/15 13:03:04;;;;;;;6.60;1.80;;;10.70;99.80;;;;;;4925882;28;20165;-88
2023/01/15 13:05:40;;;;;;;3.67;1.23;;;10.80;99.90;;;;;;4927760;28;20249;-88
2023/01/15 13:08:22;;;;;;;2.77;0.93;;;10.70;99.90;;;;;;4918515;28;20109;-88
2023/01/15 13:10:50;;;;;;;2.33;0.90;;;10.70;99.90;;;;;;4925451;28;20113;-89
2023/01/15 13:13:23;;;;;;;1.95;0.93;;;10.60;99.90;;;;;;4927656;28;20474;-89
2023/01/15 13:16:29;;;;;;;3.78;1.27;;;10.60;99.90;;;;;;4953036;28;20529;-88
2023/01/15 13:19:41;;;;;;;3.83;1.20;;;10.60;99.90;;;;;;4919135;28;20035;-87
2023/01/15 13:22:21;;;;;;;4.73;1.43;;;10.60;99.90;;;;;;4931369;28;20137;-87
2023/01/15 13:25:43;;;;;;;3.45;1.00;;;10.50;99.90;;;;;;4914302;28;20062;-90
2023/01/15 13:28:30;;;;;;;2.67;0.90;;;10.50;98.90;;;;;;4888397;28;20604;-88
2023/01/15 13:31:20;;;;;;;3.97;1.00;;;10.40;99.60;;;;;;4920906;28;20038;-89
2023/01/15 13:33:50;;;;;;;3.00;1.15;;;10.50;99.90;;;;;;4942297;28;20019;-87
2023/01/15 13:36:23;;;;;;;3.20;1.23;;;10.40;99.90;;;;;;4945974;28;20631;-87
2023/01/15 13:38:53;;;;;;;2.90;0.80;;;10.40;99.90;;;;;;4928036;28;20035;-88
2023/01/15 13:44:18;;;;;;;3.03;0.77;;;10.40;99.90;;;;;;4938812;28;20692;-89
2023/01/15 13:46:47;;;;;;;2.63;1.00;;;10.40;99.90;;;;;;4938573;28;20093;-88
2023/01/15 13:49:20;;;;;;;1.27;0.60;;;10.40;99.90;;;;;;4928213;28;20034;-88
2023/01/15 13:51:48;;;;;;;3.67;0.98;;;10.30;99.90;;;;;;4942465;28;20117;-88
2023/01/15 13:54:17;;;;;;;2.05;0.80;;;10.30;99.90;;;;;;4921536;28;20030;-89
2023/01/15 13:56:44;;;;;;;2.65;1.00;;;10.30;99.90;;;;;;4945157;28;20056;-88
2023/01/15 13:59:42;;;;;;;3.75;0.93;;;10.30;99.90;;;;;;4924454;28;20057;-87
2023/01/15 14:02:33;;;;;;;2.90;1.07;;;10.20;99.90;;;;;;4955295;28;20565;-87
2023/01/15 14:05:10;;;;;;;2.83;1.00;;;10.10;99.70;;;;;;4960278;28;20018;-89
2023/01/15 14:07:36;;;;;;;5.93;1.70;;;10.00;99.90;;;;;;4959756;28;20677;-87
2023/01/15 14:10:20;;;;;;;4.35;1.05;;;9.90;99.90;;;;;;4935591;28;21568;-89
2023/01/15 14:13:10;;;;;;;3.15;1.25;;;9.90;99.90;;;;;;4954642;28;20038;-88
2023/01/15 14:16:02;;;;;;;4.47;0.80;;;9.80;99.90;;;;;;4923610;28;20773;-87